createdAt,value
2022-12-05T00:01:22.244Z,4.30
2022-12-05T00:03:53.261Z,4.30
2022-12-05T00:06:21.526Z,4.30
2022-12-05T00:08:49.351Z,4.30
2022-12-05T00:11:22.793Z,4.30
2022-12-05T00:13:50.591Z,4.30
2022-12-05T00:16:19.698Z,4.30
2022-12-05T00:18:47.192Z,4.40
2022-12-05T00:21:18.704Z,4.30
2022-12-05T00:23:45.806Z,4.30
2022-12-05T00:26:12.897Z,4.30
2022-12-05T00:28:40.402Z,4.40
2022-12-05T00:31:13.774Z,4.40
2022-12-05T00:33:40.807Z,4.30
2022-12-05T00:36:10.800Z,4.30
2022-12-05T00:38:37.984Z,4.30
2022-12-05T00:41:12.203Z,4.30
2022-12-05T00:43:39.717Z,4.30
2022-12-05T00:46:12.494Z,4.30
2022-12-05T00:48:40.097Z,4.30
2022-12-05T00:51:28.206Z,4.30
2022-12-05T00:53:58.363Z,4.30
2022-12-05T00:56:26.931Z,4.30
2022-12-05T00:58:56.312Z,4.30
2022-12-05T01:01:29.785Z,4.30
2022-12-05T01:03:58.349Z,4.30
2022-12-05T01:06:26.259Z,4.30
2022-12-05T01:08:55.093Z,4.30
2022-12-05T01:11:23.236Z,4.30
2022-12-05T01:13:50.771Z,4.30
2022-12-05T01:16:29.074Z,4.40
2022-12-05T01:18:57.887Z,4.40
2022-12-05T01:21:25.280Z,4.30
2022-12-05T01:23:55.354Z,4.40
2022-12-05T01:26:22.801Z,4.40
2022-12-05T01:28:50.285Z,4.30
2022-12-05T01:31:24.311Z,4.40
2022-12-05T01:33:52.090Z,4.30
2022-12-05T01:36:21.171Z,4.40
2022-12-05T01:38:48.289Z,4.40
2022-12-05T01:41:18.662Z,4.40
2022-12-05T01:44:06.530Z,4.30
2022-12-05T01:46:36.365Z,4.40
2022-12-05T01:49:18.257Z,4.40
2022-12-05T01:51:48.064Z,4.40
2022-12-05T01:54:17.211Z,4.30
2022-12-05T01:56:49.643Z,4.40
2022-12-05T01:59:18.262Z,4.40
2022-12-05T02:01:45.164Z,4.30
2022-12-05T02:04:13.984Z,4.30
2022-12-05T02:06:41.135Z,4.40
2022-12-05T02:09:07.938Z,4.40
2022-12-05T02:11:36.685Z,4.40
2022-12-05T02:14:29.658Z,4.40
2022-12-05T02:17:14.982Z,4.40
2022-12-05T02:19:48.567Z,4.30
2022-12-05T02:22:43.455Z,4.40
2022-12-05T02:25:38.890Z,4.40
2022-12-05T02:28:30.643Z,4.40
2022-12-05T02:31:13.945Z,4.40
2022-12-05T02:33:50.645Z,4.30
2022-12-05T02:36:26.622Z,4.40
2022-12-05T02:39:13.044Z,4.40
2022-12-05T02:41:55.581Z,4.40
2022-12-05T02:44:34.937Z,4.40
2022-12-05T02:47:03.037Z,4.40
2022-12-05T02:49:36.415Z,4.40
2022-12-05T02:52:07.655Z,4.40
2022-12-05T02:54:38.238Z,4.40
2022-12-05T02:57:06.584Z,4.40
2022-12-05T02:59:33.678Z,4.40
2022-12-05T03:02:00.499Z,4.40
2022-12-05T03:04:31.555Z,4.40
2022-12-05T03:07:07.212Z,4.40
2022-12-05T03:09:38.929Z,4.40
2022-12-05T03:12:05.786Z,4.40
2022-12-05T03:14:39.261Z,4.40
2022-12-05T03:17:11.931Z,4.40
2022-12-05T03:20:00.523Z,4.40
2022-12-05T03:23:00.453Z,4.40
2022-12-05T03:25:35.735Z,4.40
2022-12-05T03:28:15.176Z,4.40
2022-12-05T03:30:42.741Z,4.40
2022-12-05T03:33:15.255Z,4.40
2022-12-05T03:36:11.065Z,4.40
2022-12-05T03:38:50.798Z,4.40
2022-12-05T03:41:33.910Z,4.40
2022-12-05T03:44:14.712Z,4.50
2022-12-05T03:46:47.052Z,4.50
2022-12-05T03:49:33.518Z,4.50
2022-12-05T03:52:25.176Z,4.50
2022-12-05T03:54:57.628Z,4.50
2022-12-05T03:57:49.724Z,4.50
2022-12-05T04:00:22.910Z,4.50
2022-12-05T04:03:39.003Z,4.50
2022-12-05T04:06:31.997Z,4.50
2022-12-05T04:09:17.542Z,4.50
2022-12-05T04:11:51.049Z,4.40
2022-12-05T04:14:50.010Z,4.40
2022-12-05T04:17:39.168Z,4.40
2022-12-05T04:20:34.285Z,4.40
2022-12-05T04:23:01.459Z,4.40
2022-12-05T04:25:39.976Z,4.40
2022-12-05T04:28:09.568Z,4.30
2022-12-05T04:30:43.388Z,4.30
2022-12-05T04:33:32.173Z,4.30
2022-12-05T04:36:16.207Z,4.30
2022-12-05T04:38:46.329Z,4.30
2022-12-05T04:41:39.621Z,4.30
2022-12-05T04:44:09.445Z,4.20
2022-12-05T04:46:38.239Z,4.20
2022-12-05T04:49:09.088Z,4.20
2022-12-05T04:51:38.399Z,4.20
2022-12-05T04:54:15.231Z,4.20
2022-12-05T04:56:44.904Z,4.20
2022-12-05T04:59:12.225Z,4.20
2022-12-05T05:01:48.790Z,4.20
2022-12-05T05:04:42.357Z,4.20
2022-12-05T05:07:11.575Z,4.20
2022-12-05T05:09:39.508Z,4.10
2022-12-05T05:12:07.132Z,4.10
2022-12-05T05:14:33.923Z,4.10
2022-12-05T05:17:00.853Z,4.10
2022-12-05T05:19:27.816Z,4.10
2022-12-05T05:21:54.690Z,4.00
2022-12-05T05:24:23.175Z,4.00
2022-12-05T05:26:56.940Z,4.10
2022-12-05T05:29:23.982Z,4.00
2022-12-05T05:31:50.953Z,4.00
2022-12-05T05:34:17.736Z,4.10
2022-12-05T05:36:44.572Z,4.10
2022-12-05T05:39:14.974Z,4.00
2022-12-05T05:41:42.650Z,4.00
2022-12-05T05:44:09.844Z,4.00
2022-12-05T05:46:37.261Z,4.00
2022-12-05T05:49:05.126Z,4.00
2022-12-05T05:51:32.336Z,4.00
2022-12-05T05:54:00.673Z,4.10
2022-12-05T05:56:28.110Z,4.00
2022-12-05T05:59:03.310Z,4.00
2022-12-05T06:01:30.945Z,4.00
2022-12-05T06:03:58.712Z,4.00
2022-12-05T06:06:25.950Z,4.00
2022-12-05T06:08:52.863Z,4.00
2022-12-05T06:11:25.783Z,4.00
2022-12-05T06:13:58.212Z,4.00
2022-12-05T06:16:25.749Z,4.00
2022-12-05T06:18:53.182Z,4.00
2022-12-05T06:21:21.258Z,4.00
2022-12-05T06:23:48.275Z,4.00
2022-12-05T06:26:17.621Z,4.00
2022-12-05T06:28:44.766Z,4.00
2022-12-05T06:31:14.745Z,3.90
2022-12-05T06:33:41.947Z,3.90
2022-12-05T06:36:11.318Z,3.90
2022-12-05T06:38:42.020Z,3.90
2022-12-05T06:41:13.846Z,3.90
2022-12-05T06:43:40.999Z,3.90
2022-12-05T06:46:09.250Z,3.90
2022-12-05T06:48:36.574Z,3.80
2022-12-05T06:51:04.067Z,3.90
2022-12-05T06:53:30.991Z,3.90
2022-12-05T06:56:00.349Z,3.90
2022-12-05T06:58:27.492Z,3.90
2022-12-05T07:01:13.609Z,3.90
2022-12-05T07:03:40.990Z,3.90
2022-12-05T07:06:08.302Z,3.90
2022-12-05T07:08:36.052Z,3.90
2022-12-05T07:11:03.852Z,3.90
2022-12-05T07:13:30.947Z,3.90
2022-12-05T07:15:59.069Z,3.90
2022-12-05T07:18:26.851Z,3.90
2022-12-05T07:21:17.324Z,3.90
2022-12-05T07:23:45.749Z,3.90
2022-12-05T07:26:15.806Z,3.90
2022-12-05T07:28:43.034Z,3.80
2022-12-05T07:31:12.647Z,3.80
2022-12-05T07:33:39.582Z,3.80
2022-12-05T07:36:10.151Z,3.80
2022-12-05T07:38:37.626Z,3.80
2022-12-05T07:41:11.594Z,3.80
2022-12-05T07:43:40.666Z,3.80
2022-12-05T07:46:09.146Z,3.90
2022-12-05T07:48:35.997Z,3.90
2022-12-05T07:51:04.903Z,3.90
2022-12-05T07:53:33.081Z,3.90
2022-12-05T07:56:02.041Z,4.00
2022-12-05T07:58:29.943Z,4.00
2022-12-05T08:00:58.248Z,4.00
2022-12-05T08:03:25.152Z,4.00
2022-12-05T08:05:52.029Z,4.10
2022-12-05T08:08:18.915Z,4.10
2022-12-05T08:10:45.803Z,4.10
2022-12-05T08:13:12.574Z,4.10
2022-12-05T08:15:39.662Z,4.10
2022-12-05T08:18:06.536Z,4.10
2022-12-05T08:20:33.408Z,4.20
2022-12-05T08:23:00.210Z,4.10
2022-12-05T08:25:27.073Z,4.10
2022-12-05T08:27:53.882Z,4.10
2022-12-05T08:30:20.730Z,4.10
2022-12-05T08:32:47.595Z,4.10
2022-12-05T08:35:16.740Z,4.10
2022-12-05T08:37:43.547Z,4.10
2022-12-05T08:40:10.908Z,4.10
2022-12-05T08:42:37.730Z,4.10
2022-12-05T08:45:04.903Z,4.10
2022-12-05T08:47:32.594Z,4.10
2022-12-05T08:49:59.939Z,4.10
2022-12-05T08:52:26.884Z,4.10
2022-12-05T08:54:53.680Z,4.20
2022-12-05T08:57:20.818Z,4.20
2022-12-05T08:59:47.656Z,4.20
2022-12-05T09:02:14.577Z,4.20
2022-12-05T09:04:53.687Z,4.20
2022-12-05T09:07:20.938Z,4.30
2022-12-05T09:09:47.712Z,4.20
2022-12-05T09:12:14.947Z,4.20
2022-12-05T09:14:41.795Z,4.20
2022-12-05T09:17:08.651Z,4.20
2022-12-05T09:19:35.476Z,4.20
2022-12-05T09:22:02.342Z,4.30
2022-12-05T09:24:29.145Z,4.30
2022-12-05T09:26:56.029Z,4.30
2022-12-05T09:29:25.514Z,4.30
2022-12-05T09:31:54.047Z,4.40
2022-12-05T09:34:20.851Z,4.40
2022-12-05T09:36:55.774Z,4.50
2022-12-05T09:39:25.335Z,4.50
2022-12-05T09:42:18.321Z,4.50
2022-12-05T09:45:06.086Z,4.60
2022-12-05T09:47:58.165Z,4.60
2022-12-05T09:50:28.569Z,4.60
2022-12-05T09:53:36.839Z,4.60
2022-12-05T09:56:09.735Z,4.60
2022-12-05T09:58:47.299Z,4.60
2022-12-05T10:01:42.046Z,4.60
2022-12-05T10:05:00.127Z,4.60
2022-12-05T10:08:07.725Z,4.50
2022-12-05T10:10:59.145Z,4.50
2022-12-05T10:13:38.022Z,4.60
2022-12-05T10:16:12.797Z,4.60
2022-12-05T10:19:01.337Z,4.70
2022-12-05T10:21:36.830Z,4.70
2022-12-05T10:24:10.300Z,4.60
2022-12-05T10:26:44.577Z,4.60
2022-12-05T10:29:32.491Z,4.40
2022-12-05T10:32:22.771Z,4.60
2022-12-05T10:34:51.269Z,4.60
2022-12-05T10:37:20.845Z,4.60
2022-12-05T10:39:49.713Z,4.60
2022-12-05T10:42:17.914Z,4.60
2022-12-05T10:44:45.390Z,4.60
2022-12-05T10:47:12.832Z,4.60
2022-12-05T10:49:40.286Z,4.50
2022-12-05T10:52:07.261Z,4.50
2022-12-05T10:54:42.949Z,4.50
2022-12-05T10:57:22.866Z,4.50
2022-12-05T10:59:50.264Z,4.50
2022-12-05T11:02:29.409Z,4.60
2022-12-05T11:04:57.030Z,4.60
2022-12-05T11:07:35.332Z,4.60
2022-12-05T11:10:05.152Z,4.60
2022-12-05T11:12:38.842Z,4.60
2022-12-05T11:15:05.921Z,4.50
2022-12-05T11:17:38.971Z,4.50
2022-12-05T11:20:17.892Z,4.60
2022-12-05T11:22:56.466Z,4.60
2022-12-05T11:25:35.744Z,4.60
2022-12-05T11:28:25.450Z,4.60
2022-12-05T11:30:55.396Z,4.60
2022-12-05T11:33:25.277Z,4.50
2022-12-05T11:35:54.343Z,4.50
2022-12-05T11:38:27.271Z,4.60
2022-12-05T11:41:19.019Z,4.60
2022-12-05T11:44:00.930Z,4.60
2022-12-05T11:46:47.143Z,4.70
2022-12-05T11:49:35.983Z,4.80
2022-12-05T11:52:19.108Z,4.90
2022-12-05T11:55:14.040Z,5.00
2022-12-05T11:58:07.508Z,5.00
2022-12-05T12:01:10.491Z,5.10
2022-12-05T12:04:15.010Z,5.00
2022-12-05T12:06:55.398Z,5.00
2022-12-05T12:10:00.385Z,5.00
2022-12-05T12:12:45.431Z,5.10
2022-12-05T12:15:27.591Z,5.20
2022-12-05T12:18:11.024Z,5.10
2022-12-05T12:20:56.218Z,5.10
2022-12-05T12:23:54.163Z,5.10
2022-12-05T12:26:42.078Z,5.10
2022-12-05T12:29:24.119Z,5.00
2022-12-05T12:32:32.301Z,5.10
2022-12-05T12:35:43.844Z,5.10
2022-12-05T12:38:36.383Z,5.10
2022-12-05T12:41:40.508Z,5.10
2022-12-05T12:44:38.449Z,5.20
2022-12-05T12:47:28.381Z,5.20
2022-12-05T12:49:58.246Z,5.30
2022-12-05T12:52:53.278Z,5.40
2022-12-05T12:55:52.260Z,5.40
2022-12-05T12:58:50.587Z,5.60
2022-12-05T13:01:26.506Z,5.70
2022-12-05T13:04:12.335Z,5.80
2022-12-05T13:06:46.385Z,5.80
2022-12-05T13:09:41.970Z,5.70
2022-12-05T13:12:13.338Z,5.70
2022-12-05T13:14:54.542Z,5.60
2022-12-05T13:17:23.441Z,5.60
2022-12-05T13:19:51.916Z,5.60
2022-12-05T13:22:22.446Z,5.60
2022-12-05T13:24:53.773Z,5.60
2022-12-05T13:27:29.302Z,5.50
2022-12-05T13:30:02.899Z,5.50
2022-12-05T13:32:32.028Z,5.50
2022-12-05T13:35:08.061Z,5.50
2022-12-05T13:37:54.402Z,5.60
2022-12-05T13:40:45.415Z,5.50
2022-12-05T13:43:15.958Z,5.50
2022-12-05T13:46:00.459Z,5.60
2022-12-05T13:48:31.143Z,5.50
2022-12-05T13:51:27.264Z,5.50
2022-12-05T13:54:10.676Z,5.50
2022-12-05T13:56:54.476Z,5.50
2022-12-05T13:59:58.894Z,5.40
2022-12-05T14:02:47.163Z,5.30
2022-12-05T14:05:14.136Z,5.30
2022-12-05T14:07:49.502Z,5.30
2022-12-05T14:10:38.171Z,5.30
2022-12-05T14:13:17.919Z,5.20
2022-12-05T14:15:46.013Z,5.30
2022-12-05T14:18:30.417Z,5.20
2022-12-05T14:21:09.686Z,5.20
2022-12-05T14:23:36.467Z,5.20
2022-12-05T14:26:15.346Z,5.20
2022-12-05T14:29:03.899Z,5.20
2022-12-05T14:31:45.870Z,5.20
2022-12-05T14:34:23.896Z,5.20
2022-12-05T14:37:05.250Z,5.20
2022-12-05T14:39:39.454Z,5.20
2022-12-05T14:42:26.688Z,5.20
2022-12-05T14:44:57.384Z,5.20
2022-12-05T14:47:29.035Z,5.20
2022-12-05T14:50:19.571Z,5.10
2022-12-05T14:53:15.560Z,5.10
2022-12-05T14:55:52.965Z,5.10
2022-12-05T14:58:22.924Z,5.00
2022-12-05T15:01:07.765Z,5.00
2022-12-05T15:04:09.555Z,4.90
2022-12-05T15:06:57.640Z,4.90
2022-12-05T15:09:55.333Z,4.90
2022-12-05T15:12:48.547Z,4.80
2022-12-05T15:15:24.208Z,4.90
2022-12-05T15:17:56.960Z,4.80
2022-12-05T15:20:46.189Z,4.80
2022-12-05T15:23:38.041Z,4.80
2022-12-05T15:26:44.825Z,4.80
2022-12-05T15:29:06.649Z,4.80
2022-12-05T15:31:44.240Z,4.80
2022-12-05T15:34:20.425Z,4.70
2022-12-05T15:36:52.253Z,4.70
2022-12-05T15:39:25.743Z,4.70
2022-12-05T15:41:53.651Z,4.70
2022-12-05T15:44:26.902Z,4.70
2022-12-05T15:46:57.718Z,4.70
2022-12-05T15:49:26.652Z,4.70
2022-12-05T15:52:21.940Z,4.70
2022-12-05T15:54:49.616Z,4.70
2022-12-05T15:57:36.738Z,4.60
2022-12-05T16:00:07.094Z,4.60
2022-12-05T16:02:59.014Z,4.60
2022-12-05T16:05:34.534Z,4.60
2022-12-05T16:08:03.062Z,4.60
2022-12-05T16:10:30.657Z,4.60
2022-12-05T16:13:07.615Z,4.60
2022-12-05T16:15:34.644Z,4.60
2022-12-05T16:18:03.601Z,4.60
2022-12-05T16:20:39.654Z,4.60
2022-12-05T16:23:31.813Z,4.60
2022-12-05T16:26:14.225Z,4.60
2022-12-05T16:28:41.195Z,4.60
2022-12-05T16:31:08.271Z,4.60
2022-12-05T16:33:40.173Z,4.60
2022-12-05T16:36:12.385Z,4.60
2022-12-05T16:38:43.395Z,4.60
2022-12-05T16:41:11.413Z,4.50
2022-12-05T16:43:38.228Z,4.60
2022-12-05T16:46:14.110Z,4.60
2022-12-05T16:48:47.516Z,4.60
2022-12-05T16:51:14.643Z,4.50
2022-12-05T16:53:46.668Z,4.50
2022-12-05T16:56:29.695Z,4.60
2022-12-05T16:58:57.765Z,4.50
2022-12-05T17:01:27.131Z,4.50
2022-12-05T17:03:55.430Z,4.50
2022-12-05T17:06:24.293Z,4.50
2022-12-05T17:08:52.338Z,4.50
2022-12-05T17:11:28.134Z,4.50
2022-12-05T17:13:56.842Z,4.50
2022-12-05T17:16:24.704Z,4.50
2022-12-05T17:18:51.695Z,4.50
2022-12-05T17:21:21.969Z,4.50
2022-12-05T17:23:51.705Z,4.50
2022-12-05T17:26:21.308Z,4.50
2022-12-05T17:28:49.022Z,4.50
2022-12-05T17:31:21.809Z,4.50
2022-12-05T17:33:49.935Z,4.50
2022-12-05T17:36:17.128Z,4.50
2022-12-05T17:38:44.428Z,4.50
2022-12-05T17:41:23.221Z,4.40
2022-12-05T17:43:51.464Z,4.50
2022-12-05T17:46:23.521Z,4.40
2022-12-05T17:48:51.776Z,4.40
2022-12-05T17:51:20.290Z,4.40
2022-12-05T17:53:49.981Z,4.40
2022-12-05T17:56:16.914Z,4.40
2022-12-05T17:58:43.888Z,4.40
2022-12-05T18:01:15.751Z,4.40
2022-12-05T18:03:43.009Z,4.30
2022-12-05T18:06:10.184Z,4.30
2022-12-05T18:08:39.838Z,4.30
2022-12-05T18:11:07.153Z,4.30
2022-12-05T18:13:34.694Z,4.20
2022-12-05T18:16:02.167Z,4.20
2022-12-05T18:18:29.738Z,4.20
2022-12-05T18:21:10.253Z,4.20
2022-12-05T18:23:38.554Z,4.10
2022-12-05T18:26:07.442Z,4.20
2022-12-05T18:28:37.323Z,4.10
2022-12-05T18:31:15.738Z,4.10
2022-12-05T18:33:46.412Z,4.20
2022-12-05T18:36:16.139Z,4.10
2022-12-05T18:38:44.090Z,4.10
2022-12-05T18:41:11.132Z,4.10
2022-12-05T18:43:38.252Z,4.10
2022-12-05T18:46:05.474Z,4.10
2022-12-05T18:48:40.049Z,4.10
2022-12-05T18:51:11.894Z,4.10
2022-12-05T18:53:39.606Z,4.00
2022-12-05T18:56:25.380Z,4.00
2022-12-05T18:59:07.560Z,4.00
2022-12-05T19:01:37.502Z,3.90
2022-12-05T19:04:06.654Z,3.90
2022-12-05T19:06:36.759Z,3.90
2022-12-05T19:09:09.349Z,3.80
2022-12-05T19:11:36.262Z,3.80
2022-12-05T19:14:04.711Z,3.70
2022-12-05T19:16:33.570Z,3.70
2022-12-05T19:19:01.597Z,3.60
2022-12-05T19:21:30.503Z,3.40
2022-12-05T19:23:58.048Z,3.30
2022-12-05T19:26:25.989Z,3.20
2022-12-05T19:28:52.903Z,3.10
2022-12-05T19:31:23.030Z,3.10
2022-12-05T19:33:55.614Z,3.00
2022-12-05T19:36:25.148Z,3.00
2022-12-05T19:38:53.729Z,2.90
2022-12-05T19:41:23.086Z,2.90
2022-12-05T19:43:49.915Z,2.90
2022-12-05T19:46:27.714Z,2.80
2022-12-05T19:49:00.230Z,2.90
2022-12-05T19:51:27.529Z,2.90
2022-12-05T19:53:54.514Z,2.90
2022-12-05T19:56:25.525Z,2.90
2022-12-05T19:58:55.544Z,3.00
2022-12-05T20:01:34.475Z,3.00
2022-12-05T20:04:04.790Z,3.10
2022-12-05T20:06:34.389Z,3.10
2022-12-05T20:09:02.529Z,3.10
2022-12-05T20:11:29.547Z,3.10
2022-12-05T20:13:57.945Z,3.10
2022-12-05T20:16:29.307Z,3.10
2022-12-05T20:18:59.060Z,3.10
2022-12-05T20:21:28.093Z,3.10
2022-12-05T20:23:55.557Z,3.10
2022-12-05T20:26:28.630Z,3.10
2022-12-05T20:28:59.695Z,3.10
2022-12-05T20:31:32.239Z,3.10
2022-12-05T20:33:59.195Z,3.20
2022-12-05T20:36:29.092Z,3.20
2022-12-05T20:38:59.264Z,3.20
2022-12-05T20:41:26.739Z,3.20
2022-12-05T20:43:56.141Z,3.20
2022-12-05T20:46:23.634Z,3.30
2022-12-05T20:48:51.572Z,3.30
2022-12-05T20:51:21.090Z,3.30
2022-12-05T20:53:48.469Z,3.30
2022-12-05T20:56:21.608Z,3.30
2022-12-05T20:58:50.470Z,3.30
2022-12-05T21:01:18.830Z,3.20
2022-12-05T21:03:47.594Z,3.20
2022-12-05T21:06:17.362Z,3.20
2022-12-05T21:08:44.615Z,3.20
2022-12-05T21:11:12.982Z,3.20
2022-12-05T21:13:40.285Z,3.20
2022-12-05T21:16:13.080Z,3.20
2022-12-05T21:18:40.196Z,3.10
2022-12-05T21:21:14.643Z,3.10
2022-12-05T21:23:42.437Z,3.00
2022-12-05T21:26:12.921Z,3.00
2022-12-05T21:28:40.470Z,2.90
2022-12-05T21:31:08.657Z,2.90
2022-12-05T21:33:36.059Z,2.80
2022-12-05T21:36:03.133Z,2.80
2022-12-05T21:38:30.313Z,2.70
2022-12-05T21:40:57.223Z,2.60
2022-12-05T21:43:24.005Z,2.50
2022-12-05T21:45:54.855Z,2.30
2022-12-05T21:48:23.430Z,2.30
2022-12-05T21:50:50.711Z,2.30
2022-12-05T21:53:18.509Z,2.20
2022-12-05T21:55:45.500Z,2.20
2022-12-05T21:58:12.848Z,2.30
2022-12-05T22:00:39.904Z,2.40
2022-12-05T22:03:07.535Z,2.40
2022-12-05T22:05:34.528Z,2.50
2022-12-05T22:08:06.265Z,2.60
2022-12-05T22:10:36.917Z,2.60
2022-12-05T22:13:04.399Z,2.70
2022-12-05T22:15:31.436Z,2.80
2022-12-05T22:17:58.246Z,2.80
2022-12-05T22:20:25.233Z,2.80
2022-12-05T22:22:52.080Z,2.90
2022-12-05T22:25:18.893Z,2.90
2022-12-05T22:27:45.710Z,2.90
2022-12-05T22:30:12.797Z,2.90
2022-12-05T22:32:39.657Z,2.90
2022-12-05T22:35:06.713Z,2.90
2022-12-05T22:37:33.637Z,2.90
2022-12-05T22:40:00.636Z,2.90
2022-12-05T22:42:27.619Z,3.00
2022-12-05T22:44:54.454Z,3.00
2022-12-05T22:47:21.301Z,3.00
2022-12-05T22:49:48.134Z,3.10
2022-12-05T22:52:15.434Z,3.10
2022-12-05T22:54:42.281Z,3.10
2022-12-05T22:57:09.137Z,3.10
2022-12-05T22:59:36.004Z,3.00
2022-12-05T23:02:02.830Z,3.00
2022-12-05T23:04:29.816Z,3.00
2022-12-05T23:06:56.700Z,3.00
2022-12-05T23:09:23.729Z,3.00
2022-12-05T23:11:50.668Z,3.10
2022-12-05T23:14:17.931Z,3.10
2022-12-05T23:16:44.969Z,3.10
2022-12-05T23:19:11.795Z,3.20
2022-12-05T23:21:40.272Z,3.20
2022-12-05T23:24:12.230Z,3.20
2022-12-05T23:26:46.089Z,3.20
2022-12-05T23:29:14.009Z,3.20
2022-12-05T23:31:41.906Z,3.20
2022-12-05T23:34:09.484Z,3.20
2022-12-05T23:36:36.840Z,3.20
2022-12-05T23:39:04.030Z,3.20
2022-12-05T23:41:32.364Z,3.20
2022-12-05T23:43:59.262Z,3.20
2022-12-05T23:46:29.419Z,3.30
2022-12-05T23:48:58.022Z,3.30
2022-12-05T23:51:28.428Z,3.30
2022-12-05T23:53:57.870Z,3.30
2022-12-05T23:56:27.249Z,3.30
2022-12-05T23:58:55.423Z,3.30
